Time;durP1;ratioP1;P1;durP2;ratioP2;P2;SDS_P1;SDS_P2;PMS_P1;PMS_P2;Temp;Humidity;BMP_temperature;BMP_pressure;BME280_temperature;BME280_humidity;BME280_pressure;Samples;Min_cycle;Max_cycle;Signal;HPM_P1;HPM_P2
2022/06/05 00:02:02;;;;;;;5.07;4.60;;;24.60;66.10;;;-142.21;97.05;112049.66;5115110;28;20690;-72
2022/06/05 00:04:39;;;;;;;5.67;4.30;;;24.60;66.30;;;-142.21;97.24;112049.66;5115271;28;20278;-73
2022/06/05 00:07:27;;;;;;;4.60;4.20;;;24.60;66.60;;;-142.21;97.25;112049.66;5114347;28;20212;-73
2022/06/05 00:10:07;;;;;;;4.67;4.27;;;24.50;66.40;;;-142.21;97.16;112049.66;5114899;28;20325;-73
2022/06/05 00:12:44;;;;;;;4.50;4.13;;;24.50;66.40;;;-142.21;97.21;112049.66;5114634;28;20188;-72
2022/06/05 00:15:12;;;;;;;4.63;4.23;;;24.50;66.40;;;-142.21;97.65;112049.66;5114163;28;20669;-72
2022/06/05 00:17:41;;;;;;;4.77;4.37;;;24.50;66.40;;;-142.21;97.67;112049.66;5114973;28;20323;-72
2022/06/05 00:20:11;;;;;;;4.87;4.40;;;24.50;66.50;;;-142.21;97.81;112049.66;5114157;28;20204;-73
2022/06/05 00:22:40;;;;;;;4.63;4.07;;;24.50;66.70;;;-142.21;98.04;112049.66;5114866;28;20203;-72
2022/06/05 00:25:11;;;;;;;4.63;4.23;;;24.50;67.00;;;-142.21;97.94;112049.66;5103239;28;20192;-72
2022/06/05 00:27:49;;;;;;;4.60;4.20;;;24.50;67.00;;;-142.21;98.16;112049.66;5094191;28;20188;-72
2022/06/05 00:30:26;;;;;;;4.80;4.40;;;24.50;67.00;;;-142.21;97.87;112049.66;5093805;28;20198;-72
2022/06/05 00:33:08;;;;;;;5.13;4.73;;;24.50;67.00;;;-142.21;97.92;112049.66;5109835;28;20222;-72
2022/06/05 00:35:50;;;;;;;4.70;4.30;;;24.50;67.00;;;-142.21;98.11;112049.66;5094371;28;20203;-72
2022/06/05 00:38:28;;;;;;;5.40;4.07;;;24.50;67.00;;;-142.21;98.14;112049.66;5093568;28;20184;-71
2022/06/05 00:41:28;;;;;;;4.60;4.20;;;24.50;67.00;;;-142.21;98.07;112049.66;5093896;28;20202;-73
2022/06/05 00:44:03;;;;;;;4.67;4.27;;;24.40;66.90;;;-142.21;98.16;112049.66;5093772;28;20206;-72
2022/06/05 00:46:32;;;;;;;4.80;4.30;;;24.40;66.90;;;-142.21;98.23;112049.66;5093223;28;20191;-72
2022/06/05 00:49:01;;;;;;;4.60;4.30;;;24.40;66.90;;;-142.21;98.37;112049.66;5094076;28;20200;-72
2022/06/05 00:51:28;;;;;;;4.70;4.30;;;24.40;67.20;;;-142.21;98.74;112049.66;5093418;28;20204;-73
2022/06/05 00:53:55;;;;;;;5.13;4.63;;;24.40;67.20;;;-142.21;98.77;112049.66;5093530;28;20222;-73
2022/06/05 00:56:23;;;;;;;4.97;4.57;;;24.30;67.20;;;-142.21;98.91;112049.66;5093037;28;20228;-72
2022/06/05 00:58:52;;;;;;;5.10;4.70;;;24.30;67.30;;;-142.21;99.33;112049.66;5093783;28;20295;-72
2022/06/05 01:01:20;;;;;;;5.33;4.93;;;24.30;67.40;;;-142.21;98.89;112049.66;5093311;28;20212;-72
2022/06/05 01:03:48;;;;;;;5.53;5.03;;;24.30;67.30;;;-142.21;99.23;112049.66;5093666;28;20200;-72
2022/06/05 01:06:16;;;;;;;5.80;4.70;;;24.30;67.40;;;-142.21;99.22;112049.66;5093161;28;20220;-72
2022/06/05 01:08:43;;;;;;;5.20;4.70;;;24.30;67.50;;;-142.21;99.20;112049.66;5093315;28;20286;-72
2022/06/05 01:11:24;;;;;;;5.40;4.90;;;24.30;67.50;;;-142.21;99.35;112049.66;5092656;28;20242;-72
2022/06/05 01:14:08;;;;;;;5.37;4.87;;;24.30;67.70;;;-142.21;99.27;112049.66;5093247;28;20650;-73
2022/06/05 01:16:48;;;;;;;5.77;5.10;;;24.30;67.70;;;-142.21;99.26;112049.66;5093552;28;20216;-72
2022/06/05 01:19:40;;;;;;;5.10;4.70;;;24.20;67.50;;;-142.21;99.22;112049.66;5092644;28;20281;-72
2022/06/05 01:22:59;;;;;;;5.20;4.80;;;24.20;67.70;;;-142.21;99.79;112049.66;5093429;28;20203;-72
2022/06/05 01:26:06;;;;;;;5.37;4.87;;;24.20;68.10;;;-142.21;99.89;112049.66;5087855;28;20203;-73
2022/06/05 01:28:39;;;;;;;5.30;4.80;;;24.20;68.20;;;-142.21;100.00;112049.66;5112751;28;20191;-73
2022/06/05 01:31:14;;;;;;;5.00;4.60;;;24.20;67.90;;;-142.21;100.00;112049.66;5113691;28;20202;-73
2022/06/05 01:33:52;;;;;;;5.40;4.90;;;24.20;68.50;;;-142.21;100.00;112049.66;5113584;28;20259;-71
2022/06/05 01:36:32;;;;;;;5.43;4.93;;;24.10;68.70;;;-142.21;100.00;112049.66;5112468;28;20195;-72
2022/06/05 01:39:05;;;;;;;6.50;5.60;;;24.10;69.70;;;-142.21;100.00;112049.66;5112907;28;20756;-72
2022/06/05 01:41:41;;;;;;;6.70;5.70;;;24.10;70.20;;;-142.21;100.00;112049.66;5112807;28;20190;-73
2022/06/05 01:44:16;;;;;;;5.60;5.10;;;24.10;71.00;;;-142.21;100.00;112049.66;5113358;28;20182;-72
2022/06/05 01:46:43;;;;;;;6.37;5.37;;;24.10;71.50;;;-142.21;100.00;112049.66;5113017;28;20182;-73
2022/06/05 01:49:19;;;;;;;6.37;5.77;;;24.00;71.40;;;-142.21;100.00;112049.66;5111521;28;20210;-72
2022/06/05 01:52:00;;;;;;;6.63;5.90;;;24.00;72.30;;;-142.21;100.00;112049.66;5113163;28;20276;-72
2022/06/05 01:54:35;;;;;;;7.47;6.20;;;24.00;73.00;;;-142.21;100.00;112049.66;5112419;28;20197;-72
2022/06/05 01:57:10;;;;;;;6.70;6.10;;;23.90;72.80;;;-142.21;100.00;112049.66;5113071;28;20298;-72
2022/06/05 01:59:43;;;;;;;7.00;6.40;;;23.90;73.20;;;-142.21;100.00;112049.66;5113116;28;20556;-72
2022/06/05 02:02:16;;;;;;;6.67;6.07;;;23.90;73.40;;;-142.21;100.00;112049.66;5112532;28;20190;-72
2022/06/05 02:04:48;;;;;;;6.93;6.23;;;23.90;73.60;;;-142.21;100.00;112049.66;5112648;28;20266;-74
2022/06/05 02:07:23;;;;;;;7.87;7.13;;;23.80;73.70;;;-142.21;100.00;112049.66;5112019;28;20192;-73
2022/06/05 02:09:58;;;;;;;6.80;6.10;;;23.70;74.00;;;-142.21;100.00;112049.66;5110041;28;20717;-71
2022/06/05 02:12:27;;;;;;;8.23;7.00;;;23.60;74.10;;;-142.21;100.00;112049.66;5112316;28;20208;-73
2022/06/05 02:14:55;;;;;;;7.40;6.70;;;23.50;74.60;;;-142.21;100.00;112049.66;5112832;28;20298;-72
2022/06/05 02:17:24;;;;;;;9.10;7.37;;;23.40;74.30;;;-142.21;100.00;112049.66;5111811;28;20684;-71
2022/06/05 02:19:52;;;;;;;8.03;7.33;;;23.20;74.80;;;-142.21;100.00;112049.66;5112481;28;20204;-71
2022/06/05 02:22:27;;;;;;;8.53;7.73;;;23.10;75.40;;;-142.21;100.00;112049.66;5111776;28;20623;-72
2022/06/05 02:24:55;;;;;;;8.27;7.50;;;23.00;76.10;;;-142.21;100.00;112049.66;5105099;28;20541;-72
2022/06/05 02:27:26;;;;;;;9.87;7.77;;;23.00;75.90;;;-142.21;100.00;112049.66;5091423;28;20209;-71
2022/06/05 02:29:58;;;;;;;7.80;6.97;;;23.10;75.90;;;-142.21;100.00;112049.66;5092316;28;20199;-73
2022/06/05 02:32:46;;;;;;;8.07;7.27;;;23.00;75.60;;;-142.21;100.00;112049.66;5091749;28;20211;-71
2022/06/05 02:35:28;;;;;;;9.23;7.17;;;23.00;75.50;;;-142.21;100.00;112049.66;5091574;28;20189;-71
2022/06/05 02:38:21;;;;;;;11.80;6.80;;;22.90;75.60;;;-142.21;100.00;112049.66;5091645;28;20687;-72
2022/06/05 02:41:00;;;;;;;8.07;7.27;;;22.90;76.00;;;-142.21;100.00;112049.66;5091739;28;20188;-72
2022/06/05 02:43:43;;;;;;;7.00;6.40;;;22.90;75.60;;;-142.21;100.00;112049.66;5091289;28;20188;-72
2022/06/05 02:46:21;;;;;;;7.20;6.60;;;22.80;75.20;;;-142.21;100.00;112049.66;5091820;28;20203;-72
2022/06/05 02:48:58;;;;;;;7.60;6.90;;;22.80;75.70;;;-142.21;100.00;112049.66;5091245;28;20200;-72
2022/06/05 02:51:34;;;;;;;8.13;7.43;;;22.80;75.80;;;-142.21;100.00;112049.66;5090809;28;20633;-73
2022/06/05 02:54:01;;;;;;;7.40;6.70;;;22.90;75.60;;;-142.21;100.00;112049.66;5091962;28;20185;-72
2022/06/05 02:56:32;;;;;;;7.77;7.07;;;22.90;75.40;;;-142.21;100.00;112049.66;5091556;28;20572;-71
2022/06/05 02:59:05;;;;;;;7.60;6.90;;;22.90;75.50;;;-142.21;100.00;112049.66;5091914;28;20207;-72
2022/06/05 03:04:18;;;;;;;7.17;6.57;;;22.90;75.90;;;-142.21;100.00;112049.66;5090999;28;20187;-71
2022/06/05 03:06:48;;;;;;;7.80;7.10;;;23.00;76.10;;;-142.21;100.00;112049.66;5091524;28;20236;-72
2022/06/05 03:09:16;;;;;;;7.60;6.90;;;23.00;76.10;;;-142.21;100.00;112049.66;5090781;28;20251;-73
2022/06/05 03:11:43;;;;;;;8.13;6.80;;;22.90;75.20;;;-142.21;100.00;112049.66;5091810;28;20275;-73
2022/06/05 03:14:10;;;;;;;7.90;7.17;;;22.90;75.60;;;-142.21;100.00;112049.66;5091852;28;20200;-72
2022/06/05 03:16:39;;;;;;;7.80;7.00;;;22.70;75.70;;;-142.21;100.00;112049.66;5091126;28;20299;-72
2022/06/05 03:19:06;;;;;;;7.07;6.47;;;22.80;76.20;;;-142.21;100.00;112049.66;5091074;28;20219;-72
2022/06/05 03:21:35;;;;;;;9.37;6.93;;;22.80;76.40;;;-142.21;100.00;112049.66;5091187;28;20204;-72
2022/06/05 03:24:02;;;;;;;8.33;6.80;;;22.90;75.90;;;-142.21;100.00;112049.66;5091672;28;20204;-72
2022/06/05 03:26:30;;;;;;;7.80;6.53;;;22.90;76.00;;;-142.21;100.00;112049.66;5111456;28;20207;-72
2022/06/05 03:28:57;;;;;;;7.70;6.90;;;22.80;76.60;;;-142.21;100.00;112049.66;5111748;28;20682;-73
2022/06/05 03:31:25;;;;;;;7.97;7.17;;;22.70;77.80;;;-142.21;100.00;112049.66;5111411;28;20196;-73
2022/06/05 03:33:53;;;;;;;7.30;6.60;;;22.50;77.90;;;-142.21;100.00;112049.66;5111639;28;20310;-72
2022/06/05 03:36:20;;;;;;;6.67;6.17;;;22.50;78.30;;;-142.21;100.00;112049.66;5111406;28;20215;-72
2022/06/05 03:38:48;;;;;;;7.13;6.47;;;22.50;78.60;;;-142.21;100.00;112049.66;5111727;28;20219;-72
2022/06/05 03:41:16;;;;;;;7.33;6.73;;;22.60;78.40;;;-142.21;100.00;112049.66;5111946;28;20208;-71
2022/06/05 03:43:44;;;;;;;7.40;6.80;;;22.70;78.30;;;-142.21;100.00;112049.66;5111942;28;20203;-71
2022/06/05 03:46:14;;;;;;;7.10;6.40;;;22.90;78.10;;;-142.21;100.00;112049.66;5111781;28;20215;-71
2022/06/05 03:48:43;;;;;;;7.33;6.63;;;22.90;78.00;;;-142.21;100.00;112049.66;5111170;28;20192;-71
2022/06/05 03:51:16;;;;;;;7.23;6.47;;;23.00;79.20;;;-142.21;100.00;112049.66;5111410;28;20211;-71
2022/06/05 03:53:44;;;;;;;8.00;7.20;;;23.10;78.80;;;-142.21;100.00;112049.66;5111567;28;20196;-72
2022/06/05 03:56:12;;;;;;;11.73;7.97;;;23.10;79.00;;;-142.21;100.00;112049.66;5111734;28;20200;-72
2022/06/05 03:58:39;;;;;;;8.17;7.37;;;23.10;79.10;;;-142.21;100.00;112049.66;5112038;28;20227;-72
2022/06/05 04:01:09;;;;;;;8.67;7.97;;;23.10;79.20;;;-142.21;100.00;112049.66;5115421;28;20428;-71
2022/06/05 04:03:37;;;;;;;8.07;7.30;;;23.10;79.30;;;-142.21;100.00;112049.66;5095264;28;20207;-72
2022/06/05 04:06:07;;;;;;;11.23;7.47;;;23.10;79.30;;;-142.21;100.00;112049.66;5114794;28;20228;-72
2022/06/05 04:08:36;;;;;;;7.73;7.03;;;23.10;79.50;;;-142.21;100.00;112049.66;5114691;28;20204;-72
2022/06/05 04:11:09;;;;;;;7.90;7.13;;;23.10;79.40;;;-142.21;100.00;112049.66;5114043;28;20238;-72
2022/06/05 04:13:36;;;;;;;8.33;7.53;;;23.10;79.70;;;-142.21;100.00;112049.66;5114822;28;20561;-72
2022/06/05 04:16:11;;;;;;;9.27;8.03;;;23.10;80.10;;;-142.21;100.00;112049.66;5115120;28;20210;-72
2022/06/05 04:18:39;;;;;;;9.30;8.40;;;23.10;80.00;;;-142.21;100.00;112049.66;5114430;27;20211;-73
2022/06/05 04:21:08;;;;;;;8.33;7.63;;;23.00;79.80;;;-142.21;100.00;112049.66;5114816;28;20778;-72
2022/06/05 04:23:37;;;;;;;8.37;7.47;;;22.90;80.20;;;-142.21;100.00;112049.66;5114615;28;20207;-72
2022/06/05 04:26:09;;;;;;;9.73;7.87;;;22.90;80.80;;;-142.21;100.00;112049.66;5114960;28;20563;-72
2022/06/05 04:28:36;;;;;;;10.73;8.43;;;22.90;80.70;;;-142.21;100.00;112049.66;5114307;28;20180;-73
2022/06/05 04:31:04;;;;;;;10.83;8.10;;;22.90;81.10;;;-142.21;100.00;112049.66;5114770;28;20203;-72
2022/06/05 04:33:32;;;;;;;8.80;7.90;;;22.90;81.00;;;-142.21;100.00;112049.66;5114210;28;20628;-72
2022/06/05 04:36:00;;;;;;;8.90;8.00;;;22.90;81.10;;;-142.21;100.00;112049.66;5114823;28;20253;-73
2022/06/05 04:38:27;;;;;;;12.20;8.40;;;22.90;81.10;;;-142.21;100.00;112049.66;5114072;28;20587;-72
2022/06/05 04:40:55;;;;;;;9.43;8.13;;;22.90;81.20;;;-142.21;100.00;112049.66;5114491;28;20208;-71
2022/06/05 04:43:22;;;;;;;9.20;7.70;;;22.90;81.70;;;-142.21;100.00;112049.66;5113957;28;20660;-72
2022/06/05 04:45:50;;;;;;;8.53;7.73;;;22.90;81.40;;;-142.21;100.00;112049.66;5114479;28;20208;-73
2022/06/05 04:48:17;;;;;;;8.10;7.30;;;23.00;81.60;;;-142.21;100.00;112049.66;5114457;28;20210;-71
2022/06/05 04:50:44;;;;;;;8.80;8.00;;;23.00;82.30;;;-142.21;100.00;112049.66;5114025;28;20207;-71
2022/06/05 04:53:11;;;;;;;8.77;7.80;;;23.00;81.40;;;-142.21;100.00;112049.66;5114523;28;20203;-71
2022/06/05 04:55:39;;;;;;;8.73;7.67;;;23.00;82.00;;;-142.21;100.00;112049.66;5112865;28;20199;-71
2022/06/05 04:58:09;;;;;;;8.50;7.10;;;23.00;81.30;;;-142.21;100.00;112049.66;5114462;28;20225;-71
2022/06/05 05:00:38;;;;;;;9.50;8.60;;;23.00;81.30;;;-142.21;100.00;112049.66;5113273;28;20676;-72
2022/06/05 05:03:06;;;;;;;8.80;8.00;;;23.00;81.30;;;-142.21;100.00;112049.66;5114177;28;20210;-73
2022/06/05 05:05:35;;;;;;;9.03;8.23;;;23.00;82.00;;;-142.21;100.00;112049.66;5113589;28;20239;-72
2022/06/05 05:08:02;;;;;;;10.53;8.77;;;23.00;81.40;;;-142.21;100.00;112049.66;5114149;28;20200;-72
2022/06/05 05:10:29;;;;;;;10.00;8.97;;;23.00;81.40;;;-142.21;100.00;112049.66;5112590;28;20318;-72
2022/06/05 05:12:59;;;;;;;9.93;8.93;;;22.90;81.40;;;-142.21;100.00;112049.66;5114298;28;20203;-71
2022/06/05 05:15:27;;;;;;;9.10;8.17;;;22.90;82.00;;;-142.21;100.00;112049.66;5113339;28;20216;-72
2022/06/05 05:17:55;;;;;;;8.90;8.03;;;22.90;82.40;;;-142.21;100.00;112049.66;5113868;28;20711;-72
2022/06/05 05:20:22;;;;;;;9.03;8.23;;;22.90;83.10;;;-142.21;100.00;112049.66;5113099;28;20207;-72
2022/06/05 05:22:49;;;;;;;9.43;8.27;;;22.90;82.40;;;-142.21;100.00;112049.66;5113897;28;20226;-72
2022/06/05 05:25:16;;;;;;;8.97;8.07;;;23.00;82.30;;;-142.21;100.00;112049.66;5103017;28;20198;-73
2022/06/05 05:27:43;;;;;;;8.80;8.03;;;23.00;82.30;;;-142.21;100.00;112049.66;5092866;28;20200;-72
2022/06/05 05:30:13;;;;;;;8.77;7.97;;;23.00;82.40;;;-142.21;100.00;112049.66;5093275;28;20210;-71
2022/06/05 05:32:41;;;;;;;10.53;8.20;;;23.10;82.30;;;-142.21;100.00;112049.66;5092768;28;20292;-72
2022/06/05 05:35:10;;;;;;;8.73;7.97;;;23.00;82.30;;;-142.21;100.00;112049.66;5093082;28;20210;-72
2022/06/05 05:37:37;;;;;;;9.20;8.20;;;23.10;82.40;;;-142.21;100.00;112049.66;5091429;28;20220;-72
2022/06/05 05:42:49;;;;;;;8.53;7.73;;;23.10;82.20;;;-142.21;100.00;112049.66;5093087;28;20210;-72
2022/06/05 05:45:17;;;;;;;9.33;8.43;;;23.20;82.30;;;-142.21;100.00;112049.66;5093005;28;20213;-72
2022/06/05 05:47:46;;;;;;;8.83;7.93;;;23.20;82.30;;;-142.21;100.00;112049.66;5092434;28;20207;-72
2022/06/05 05:50:16;;;;;;;8.70;7.90;;;23.20;82.40;;;-142.21;100.00;112049.66;5092895;28;20226;-72
2022/06/05 05:52:44;;;;;;;9.37;7.77;;;23.20;82.40;;;-142.21;100.00;112049.66;5092487;28;20895;-72
2022/06/05 05:55:15;;;;;;;8.93;7.80;;;23.30;82.30;;;-142.21;100.00;112049.66;5093117;28;20197;-72
2022/06/05 05:57:44;;;;;;;9.20;8.30;;;23.30;82.00;;;-142.21;100.00;112049.66;5092408;28;20197;-72
2022/06/05 06:00:16;;;;;;;9.73;8.83;;;23.30;82.20;;;-142.21;100.00;112049.66;5092716;28;20562;-72
2022/06/05 06:02:45;;;;;;;10.20;9.20;;;23.30;82.70;;;-142.21;100.00;112049.66;5091974;28;20634;-72
2022/06/05 06:05:15;;;;;;;10.50;9.33;;;23.30;82.50;;;-142.21;100.00;112049.66;5092568;28;20224;-72
2022/06/05 06:07:43;;;;;;;9.83;8.83;;;23.20;82.70;;;-142.21;100.00;112049.66;5091804;28;20210;-72
2022/06/05 06:10:11;;;;;;;9.73;8.77;;;23.20;82.90;;;-142.21;100.00;112049.66;5092613;28;20244;-72
2022/06/05 06:12:38;;;;;;;10.23;9.10;;;23.10;82.90;;;-142.21;100.00;112049.66;5090985;28;20557;-72
2022/06/05 06:15:08;;;;;;;9.67;8.87;;;23.20;83.10;;;-142.21;100.00;112049.66;5092531;28;20205;-72
2022/06/05 06:17:35;;;;;;;9.73;7.93;;;23.30;83.20;;;-142.21;100.00;112049.66;5091949;28;20210;-71
2022/06/05 06:20:04;;;;;;;9.50;7.80;;;23.30;83.20;;;-142.21;100.00;112049.66;5092700;28;20208;-72
2022/06/05 06:22:32;;;;;;;9.37;8.47;;;23.40;83.50;;;-142.21;100.00;112049.66;5091689;28;20291;-72
2022/06/05 06:24:59;;;;;;;10.03;9.03;;;23.50;83.50;;;-142.21;100.00;112049.66;5100649;28;20195;-72
2022/06/05 06:27:28;;;;;;;9.77;8.87;;;23.50;83.40;;;-142.21;100.00;112049.66;5112291;28;20208;-71
2022/06/05 06:29:55;;;;;;;9.83;8.90;;;23.50;83.30;;;-142.21;100.00;112049.66;5112628;28;20572;-72
2022/06/05 06:32:22;;;;;;;9.53;8.73;;;23.50;83.20;;;-142.21;100.00;112049.66;5112749;28;20214;-72
2022/06/05 06:34:49;;;;;;;10.23;9.03;;;23.50;82.80;;;-142.21;100.00;112049.66;5112040;28;20209;-71
2022/06/05 06:37:20;;;;;;;9.73;8.70;;;23.60;82.70;;;-142.21;100.00;112049.66;5112746;28;20205;-72
2022/06/05 06:39:47;;;;;;;8.60;7.83;;;23.60;82.70;;;-142.21;100.00;112049.66;5112289;28;20443;-72
2022/06/05 06:42:14;;;;;;;9.47;8.33;;;23.50;82.50;;;-142.21;100.00;112049.66;5112131;28;20216;-72
2022/06/05 06:44:41;;;;;;;10.10;9.10;;;23.60;82.30;;;-142.21;100.00;112049.66;5112139;28;20204;-72
2022/06/05 06:47:08;;;;;;;9.70;8.60;;;23.60;82.30;;;-142.21;100.00;112049.66;5112501;28;20199;-72
2022/06/05 06:49:35;;;;;;;8.80;8.00;;;23.60;82.00;;;-142.21;100.00;112049.66;5111885;28;20199;-72
2022/06/05 06:52:03;;;;;;;8.50;7.70;;;23.60;81.70;;;-142.21;100.00;112049.66;5112574;28;20285;-72
2022/06/05 06:54:32;;;;;;;8.67;7.77;;;23.50;81.80;;;-142.21;100.00;112049.66;5111734;28;20208;-71
2022/06/05 06:56:59;;;;;;;9.13;8.27;;;23.50;81.80;;;-142.21;100.00;112049.66;5111877;28;20291;-72
2022/06/05 06:59:27;;;;;;;8.57;7.77;;;23.50;82.00;;;-142.21;100.00;112049.66;5112353;28;20333;-72
2022/06/05 07:01:54;;;;;;;8.60;7.80;;;23.50;81.80;;;-142.21;100.00;112049.66;5112222;28;20209;-72
2022/06/05 07:04:22;;;;;;;9.27;8.23;;;23.50;81.90;;;-142.21;100.00;112049.66;5111943;28;20301;-72
2022/06/05 07:06:49;;;;;;;8.67;7.87;;;23.50;81.80;;;-142.21;100.00;112049.66;5111785;28;20233;-71
2022/06/05 07:09:16;;;;;;;7.50;6.83;;;23.50;82.80;;;-142.21;100.00;112049.66;5112064;28;20609;-72
2022/06/05 07:11:45;;;;;;;8.07;7.27;;;23.50;81.70;;;-142.21;100.00;112049.66;5111213;28;20257;-72
2022/06/05 07:14:12;;;;;;;7.53;6.83;;;23.50;82.40;;;-142.21;100.00;112049.66;5112277;28;20211;-72
2022/06/05 07:16:40;;;;;;;8.37;7.67;;;23.40;81.40;;;-142.21;100.00;112049.66;5111741;28;20310;-72
2022/06/05 07:19:07;;;;;;;7.83;7.07;;;23.50;81.30;;;-142.21;100.00;112049.66;5112126;28;20224;-72
2022/06/05 07:21:34;;;;;;;8.87;8.07;;;23.40;81.40;;;-142.21;100.00;112049.66;5111415;28;20213;-71
2022/06/05 07:24:02;;;;;;;9.53;8.20;;;23.50;81.80;;;-142.21;100.00;112049.66;5112177;28;20273;-72
2022/06/05 07:26:33;;;;;;;8.57;7.77;;;23.50;81.80;;;-142.21;100.00;112049.66;5091150;28;20211;-72
2022/06/05 07:29:02;;;;;;;9.57;8.67;;;23.50;81.80;;;-142.21;100.00;112049.66;5091869;28;20221;-71
2022/06/05 07:31:31;;;;;;;13.03;7.90;;;23.50;81.80;;;-142.21;100.00;112049.66;5091893;28;20291;-71
2022/06/05 07:34:00;;;;;;;8.13;7.33;;;23.50;81.70;;;-142.21;100.00;112049.66;5057644;28;20216;-71
2022/06/05 07:36:29;;;;;;;8.07;7.37;;;23.50;81.40;;;-142.21;100.00;112049.66;5095722;28;20209;-71
2022/06/05 07:38:57;;;;;;;7.90;7.10;;;23.50;80.80;;;-142.21;100.00;112049.66;5095458;28;20246;-72
2022/06/05 07:41:33;;;;;;;8.27;7.40;;;23.60;80.70;;;-142.21;100.00;112049.66;5095380;28;20216;-72
2022/06/05 07:44:02;;;;;;;8.60;7.87;;;23.50;80.40;;;-142.21;100.00;112049.66;5095204;28;20289;-72
2022/06/05 07:46:30;;;;;;;9.87;8.00;;;23.50;80.50;;;-142.21;100.00;112049.66;5095241;28;20210;-71
2022/06/05 07:48:58;;;;;;;7.83;7.13;;;23.50;80.70;;;-142.21;100.00;112049.66;5095392;28;20203;-71
2022/06/05 07:54:35;;;;;;;7.83;7.13;;;23.70;80.80;;;-142.21;100.00;112049.66;5095182;28;20194;-72
2022/06/05 07:57:06;;;;;;;8.33;7.53;;;23.70;80.20;;;-142.21;100.00;112049.66;5095274;28;20191;-72
2022/06/05 07:59:38;;;;;;;9.70;7.87;;;23.80;80.50;;;-142.21;100.00;112049.66;5094481;28;20212;-71
2022/06/05 08:02:09;;;;;;;8.03;7.33;;;23.80;80.40;;;-142.21;100.00;112049.66;5095506;28;20197;-71
2022/06/05 08:04:37;;;;;;;8.57;7.77;;;23.70;80.20;;;-142.21;100.00;112049.66;5094645;28;20552;-72
2022/06/05 08:07:08;;;;;;;9.00;8.20;;;23.80;80.40;;;-142.21;100.00;112049.66;5095115;28;20270;-71
2022/06/05 08:09:36;;;;;;;7.17;6.47;;;23.70;79.60;;;-142.21;100.00;112049.66;5093581;28;20210;-72
2022/06/05 08:12:04;;;;;;;9.07;7.90;;;23.60;78.80;;;-142.21;100.00;112049.66;5094792;28;20185;-71
2022/06/05 08:14:34;;;;;;;8.10;7.30;;;23.50;78.90;;;-142.21;100.00;112049.66;5094598;28;20291;-72
2022/06/05 08:17:04;;;;;;;8.30;7.50;;;23.50;79.50;;;-142.21;100.00;112049.66;5094789;28;20202;-72
2022/06/05 08:19:32;;;;;;;7.73;6.93;;;23.50;79.50;;;-142.21;100.00;112049.66;5094922;28;20238;-72
2022/06/05 08:21:59;;;;;;;8.20;7.30;;;23.60;79.50;;;-142.21;100.00;112049.66;5094568;28;20216;-72
2022/06/05 08:24:27;;;;;;;6.97;6.37;;;23.50;79.30;;;-142.21;100.00;112049.66;5097718;28;20203;-71
2022/06/05 08:26:54;;;;;;;7.73;7.07;;;23.50;78.50;;;-142.21;100.00;112049.66;5114419;28;20291;-72
2022/06/05 08:29:22;;;;;;;8.43;7.37;;;23.60;78.70;;;-142.21;100.00;112049.66;5115138;28;20204;-72
2022/06/05 08:31:49;;;;;;;7.87;6.53;;;23.70;78.50;;;-142.21;100.00;112049.66;5114299;28;20206;-71
2022/06/05 08:34:18;;;;;;;7.00;6.40;;;23.80;77.70;;;-142.21;100.00;112049.66;5114768;28;20205;-71
2022/06/05 08:36:45;;;;;;;7.33;6.63;;;23.90;78.30;;;-142.21;100.00;112049.66;5114331;28;20300;-72
2022/06/05 08:42:14;;;;;;;7.03;6.43;;;24.20;77.10;;;-142.21;100.00;112049.66;5114009;28;20251;-71
2022/06/05 08:44:51;;;;;;;7.60;6.80;;;24.30;77.50;;;-142.21;100.00;112049.66;5113173;28;20198;-71
2022/06/05 08:47:29;;;;;;;7.07;6.37;;;24.40;76.10;;;-142.21;100.00;112049.66;5114248;28;20284;-72
2022/06/05 08:50:13;;;;;;;8.43;5.90;;;24.60;76.80;;;-142.21;100.00;112049.66;5114170;28;20214;-71
2022/06/05 08:52:50;;;;;;;6.00;5.50;;;24.70;75.40;;;-142.21;100.00;112049.66;5113479;28;20378;-72
2022/06/05 08:55:34;;;;;;;6.23;5.73;;;24.90;76.20;;;-142.21;100.00;112049.66;5114402;28;20229;-72
2022/06/05 08:58:25;;;;;;;6.23;5.63;;;25.00;77.80;;;-142.21;100.00;112049.66;5114142;28;20632;-72
2022/06/05 09:01:00;;;;;;;5.87;5.37;;;25.30;76.60;;;-142.21;100.00;112049.66;5113725;28;20191;-71
2022/06/05 09:03:35;;;;;;;6.03;5.43;;;25.40;75.70;;;-142.21;100.00;112049.66;5114421;28;20256;-72
2022/06/05 09:06:15;;;;;;;5.90;5.40;;;25.50;74.10;;;-142.21;100.00;112049.66;5114051;28;20310;-71
2022/06/05 09:08:45;;;;;;;5.23;4.80;;;25.60;73.40;;;-142.21;100.00;112049.66;5111852;28;20294;-71
2022/06/05 09:11:28;;;;;;;8.07;5.37;;;25.60;72.40;;;-142.21;100.00;112049.66;5113635;28;20270;-72
2022/06/05 09:14:07;;;;;;;5.70;5.20;;;25.60;72.50;;;-142.21;100.00;112049.66;5113421;28;20553;-70
2022/06/05 09:16:44;;;;;;;6.77;5.80;;;25.70;73.10;;;-142.21;100.00;112049.66;5113958;28;20196;-72
2022/06/05 09:19:19;;;;;;;6.17;5.67;;;25.90;73.60;;;-142.21;100.00;112049.66;5113966;28;20294;-72
2022/06/05 09:21:58;;;;;;;5.93;5.40;;;26.00;74.50;;;-142.21;100.00;112049.66;5113276;28;20278;-72
2022/06/05 09:24:43;;;;;;;5.53;5.03;;;26.10;72.60;;;-142.21;100.00;112049.66;5110609;28;20553;-72
2022/06/05 09:27:27;;;;;;;5.70;5.20;;;26.10;72.00;;;-142.21;100.00;112049.66;5093670;28;20572;-72
2022/06/05 09:30:03;;;;;;;5.73;5.23;;;26.00;71.50;;;-142.21;100.00;112049.66;5092635;28;20223;-72
2022/06/05 09:32:53;;;;;;;6.37;5.77;;;26.00;72.30;;;-142.21;100.00;112049.66;5093576;28;20199;-72
2022/06/05 09:35:27;;;;;;;6.30;5.73;;;26.10;72.30;;;-142.21;100.00;112049.66;5093292;28;20192;-72
2022/06/05 09:38:02;;;;;;;6.63;6.03;;;26.20;72.00;;;-142.21;100.00;112049.66;5092548;28;20188;-72
2022/06/05 09:40:36;;;;;;;7.03;6.37;;;26.10;72.00;;;-142.21;100.00;112049.66;5092911;28;20216;-72
2022/06/05 09:43:44;;;;;;;6.93;5.97;;;26.10;71.40;;;-142.21;100.00;112049.66;5093354;28;20281;-72
2022/06/05 09:46:40;;;;;;;7.27;6.67;;;26.00;72.10;;;-142.21;100.00;112049.66;5085143;28;20215;-72
2022/06/05 09:49:18;;;;;;;8.90;7.10;;;26.10;72.00;;;-142.21;100.00;112049.66;5092902;28;20185;-72
2022/06/05 09:51:45;;;;;;;8.70;8.00;;;26.10;72.90;;;-142.21;100.00;112049.66;5092067;28;20637;-71
2022/06/05 09:54:23;;;;;;;9.43;8.60;;;26.10;72.50;;;-142.21;100.00;112049.66;5092676;28;20235;-73
2022/06/05 10:00:09;;;;;;;11.07;10.03;;;25.70;73.00;;;-142.21;100.00;112049.66;5091724;28;20219;-72
2022/06/05 10:02:38;;;;;;;10.07;9.20;;;25.70;73.50;;;-142.21;100.00;112049.66;5093023;28;20188;-71
2022/06/05 10:05:14;;;;;;;10.53;9.63;;;25.70;73.50;;;-142.21;100.00;112049.66;5092622;28;20330;-72
2022/06/05 10:07:52;;;;;;;12.40;11.30;;;25.60;74.40;;;-142.21;100.00;112049.66;5092392;28;20264;-70
2022/06/05 10:10:32;;;;;;;10.17;9.27;;;25.60;74.50;;;-142.21;100.00;112049.66;5092452;28;20230;-71
2022/06/05 10:13:14;;;;;;;12.53;11.13;;;25.60;74.20;;;-142.21;100.00;112049.66;5091749;28;20279;-72
2022/06/05 10:15:52;;;;;;;10.50;9.60;;;25.60;73.70;;;-142.21;100.00;112049.66;5091982;28;20198;-71
2022/06/05 10:18:28;;;;;;;10.30;9.30;;;25.60;73.90;;;-142.21;100.00;112049.66;5092276;28;20283;-72
2022/06/05 10:21:05;;;;;;;9.63;8.73;;;25.90;73.40;;;-142.21;100.00;112049.66;5091466;28;20300;-73
2022/06/05 10:23:59;;;;;;;9.33;8.53;;;26.10;72.90;;;-142.21;100.00;112049.66;5092315;28;20652;-72
2022/06/05 10:26:34;;;;;;;10.37;9.47;;;26.40;72.70;;;-142.21;100.00;112049.66;5112919;28;20279;-71
2022/06/05 10:29:20;;;;;;;9.37;8.37;;;26.30;70.70;;;-142.21;100.00;112049.66;5111976;28;20278;-72